sensor_id;sensor_type;location;lat;lon;timestamp;temperature;humidity
3055;DHT22;1537;52.018;8.542;2024-02-28T00:02:45;1.60;99.90
3055;DHT22;1537;52.018;8.542;2024-02-28T00:06:09;1.60;99.90
3055;DHT22;1537;52.018;8.542;2024-02-28T00:09:34;1.50;99.90
3055;DHT22;1537;52.018;8.542;2024-02-28T00:12:58;1.50;99.90
3055;DHT22;1537;52.018;8.542;2024-02-28T00:16:21;1.40;99.90
3055;DHT22;1537;52.018;8.542;2024-02-28T00:19:45;1.40;99.90
3055;DHT22;1537;52.018;8.542;2024-02-28T00:23:09;1.30;99.90
3055;DHT22;1537;52.018;8.542;2024-02-28T00:26:34;1.30;99.90
3055;DHT22;1537;52.018;8.542;2024-02-28T00:29:57;1.40;99.90
3055;DHT22;1537;52.018;8.542;2024-02-28T00:33:21;1.30;99.90
3055;DHT22;1537;52.018;8.542;2024-02-28T00:36:45;1.30;99.90
3055;DHT22;1537;52.018;8.542;2024-02-28T00:40:17;1.30;99.90
3055;DHT22;1537;52.018;8.542;2024-02-28T00:43:42;1.30;99.90
3055;DHT22;1537;52.018;8.542;2024-02-28T00:47:06;1.30;99.90
3055;DHT22;1537;52.018;8.542;2024-02-28T00:50:30;1.30;99.90
3055;DHT22;1537;52.018;8.542;2024-02-28T00:53:54;1.30;99.90
3055;DHT22;1537;52.018;8.542;2024-02-28T00:57:17;1.20;99.90
3055;DHT22;1537;52.018;8.542;2024-02-28T01:00:42;1.20;99.90
3055;DHT22;1537;52.018;8.542;2024-02-28T01:04:06;1.20;99.90
3055;DHT22;1537;52.018;8.542;2024-02-28T01:07:30;1.20;99.90
3055;DHT22;1537;52.018;8.542;2024-02-28T01:10:53;1.20;99.90
3055;DHT22;1537;52.018;8.542;2024-02-28T01:14:17;1.10;99.90
3055;DHT22;1537;52.018;8.542;2024-02-28T01:17:42;1.10;99.90
3055;DHT22;1537;52.018;8.542;2024-02-28T01:21:06;1.00;99.90
3055;DHT22;1537;52.018;8.542;2024-02-28T01:24:29;1.00;99.90
3055;DHT22;1537;52.018;8.542;2024-02-28T01:27:55;1.00;99.90
3055;DHT22;1537;52.018;8.542;2024-02-28T01:31:20;1.00;99.90
3055;DHT22;1537;52.018;8.542;2024-02-28T01:34:45;1.00;99.90
3055;DHT22;1537;52.018;8.542;2024-02-28T01:38:09;1.00;99.90
3055;DHT22;1537;52.018;8.542;2024-02-28T01:41:33;0.90;99.90
3055;DHT22;1537;52.018;8.542;2024-02-28T01:44:57;0.90;99.90
3055;DHT22;1537;52.018;8.542;2024-02-28T01:48:21;0.90;99.90
3055;DHT22;1537;52.018;8.542;2024-02-28T01:51:47;0.90;99.90
3055;DHT22;1537;52.018;8.542;2024-02-28T01:55:11;0.90;99.90
3055;DHT22;1537;52.018;8.542;2024-02-28T01:58:35;0.80;99.90
3055;DHT22;1537;52.018;8.542;2024-02-28T02:01:58;0.80;99.90
3055;DHT22;1537;52.018;8.542;2024-02-28T02:05:22;0.80;99.90
3055;DHT22;1537;52.018;8.542;2024-02-28T02:08:47;0.70;99.90
3055;DHT22;1537;52.018;8.542;2024-02-28T02:12:11;0.70;99.90
3055;DHT22;1537;52.018;8.542;2024-02-28T02:15:35;0.70;99.90
3055;DHT22;1537;52.018;8.542;2024-02-28T02:18:58;0.70;99.90
3055;DHT22;1537;52.018;8.542;2024-02-28T02:22:23;0.70;99.90
3055;DHT22;1537;52.018;8.542;2024-02-28T02:25:51;0.70;99.90
3055;DHT22;1537;52.018;8.542;2024-02-28T02:29:15;0.70;99.90
3055;DHT22;1537;52.018;8.542;2024-02-28T02:32:39;0.70;99.90
3055;DHT22;1537;52.018;8.542;2024-02-28T02:36:03;0.70;99.90
3055;DHT22;1537;52.018;8.542;2024-02-28T02:39:27;0.80;99.90
3055;DHT22;1537;52.018;8.542;2024-02-28T02:42:52;0.80;99.90
3055;DHT22;1537;52.018;8.542;2024-02-28T02:46:16;0.90;99.90
3055;DHT22;1537;52.018;8.542;2024-02-28T02:49:39;0.90;99.90
3055;DHT22;1537;52.018;8.542;2024-02-28T02:53:03;0.90;99.90
3055;DHT22;1537;52.018;8.542;2024-02-28T02:56:27;0.90;99.90
3055;DHT22;1537;52.018;8.542;2024-02-28T02:59:52;0.90;99.90
3055;DHT22;1537;52.018;8.542;2024-02-28T03:03:16;0.90;99.90
3055;DHT22;1537;52.018;8.542;2024-02-28T03:06:40;0.90;99.90
3055;DHT22;1537;52.018;8.542;2024-02-28T03:10:04;0.90;99.90
3055;DHT22;1537;52.018;8.542;2024-02-28T03:13:28;0.90;99.90
3055;DHT22;1537;52.018;8.542;2024-02-28T03:16:53;1.00;99.90
3055;DHT22;1537;52.018;8.542;2024-02-28T03:20:16;0.90;99.90
3055;DHT22;1537;52.018;8.542;2024-02-28T03:23:40;0.90;99.90
3055;DHT22;1537;52.018;8.542;2024-02-28T03:27:04;0.90;99.90
3055;DHT22;1537;52.018;8.542;2024-02-28T03:30:27;0.90;99.90
3055;DHT22;1537;52.018;8.542;2024-02-28T03:33:52;1.00;99.90
3055;DHT22;1537;52.018;8.542;2024-02-28T03:37:16;1.00;99.90
3055;DHT22;1537;52.018;8.542;2024-02-28T03:40:40;1.00;99.90
3055;DHT22;1537;52.018;8.542;2024-02-28T03:44:04;1.00;99.90
3055;DHT22;1537;52.018;8.542;2024-02-28T03:47:27;0.90;99.90
3055;DHT22;1537;52.018;8.542;2024-02-28T03:50:53;0.90;99.90
3055;DHT22;1537;52.018;8.542;2024-02-28T03:54:16;0.90;99.90
3055;DHT22;1537;52.018;8.542;2024-02-28T03:57:40;0.80;99.90
3055;DHT22;1537;52.018;8.542;2024-02-28T04:01:03;0.90;99.90
3055;DHT22;1537;52.018;8.542;2024-02-28T04:04:27;0.90;99.90
3055;DHT22;1537;52.018;8.542;2024-02-28T04:07:52;0.90;99.90
3055;DHT22;1537;52.018;8.542;2024-02-28T04:11:16;0.90;99.90
3055;DHT22;1537;52.018;8.542;2024-02-28T04:14:40;0.80;99.90
3055;DHT22;1537;52.018;8.542;2024-02-28T04:18:04;0.80;99.90
3055;DHT22;1537;52.018;8.542;2024-02-28T04:21:27;0.80;99.90
3055;DHT22;1537;52.018;8.542;2024-02-28T04:24:53;0.80;99.90
3055;DHT22;1537;52.018;8.542;2024-02-28T04:28:16;0.80;99.90
3055;DHT22;1537;52.018;8.542;2024-02-28T04:31:40;0.70;99.90
3055;DHT22;1537;52.018;8.542;2024-02-28T04:35:04;0.70;99.90
3055;DHT22;1537;52.018;8.542;2024-02-28T04:38:28;0.70;99.90
3055;DHT22;1537;52.018;8.542;2024-02-28T04:41:53;0.70;99.90
3055;DHT22;1537;52.018;8.542;2024-02-28T04:45:17;0.70;99.90
3055;DHT22;1537;52.018;8.542;2024-02-28T04:48:41;0.70;99.90
3055;DHT22;1537;52.018;8.542;2024-02-28T04:52:05;0.70;99.90
3055;DHT22;1537;52.018;8.542;2024-02-28T04:55:29;0.60;99.90
3055;DHT22;1537;52.018;8.542;2024-02-28T04:58:54;0.70;99.90
3055;DHT22;1537;52.018;8.542;2024-02-28T05:02:18;0.70;99.90
3055;DHT22;1537;52.018;8.542;2024-02-28T05:05:41;0.70;99.90
3055;DHT22;1537;52.018;8.542;2024-02-28T05:09:05;0.70;99.90
3055;DHT22;1537;52.018;8.542;2024-02-28T05:12:31;0.70;99.90
3055;DHT22;1537;52.018;8.542;2024-02-28T05:15:57;0.70;99.90
3055;DHT22;1537;52.018;8.542;2024-02-28T05:19:22;0.80;99.90
3055;DHT22;1537;52.018;8.542;2024-02-28T05:22:46;0.90;99.90
3055;DHT22;1537;52.018;8.542;2024-02-28T05:26:11;1.00;99.90
3055;DHT22;1537;52.018;8.542;2024-02-28T05:29:37;1.10;99.90
3055;DHT22;1537;52.018;8.542;2024-02-28T05:33:07;1.00;99.90
3055;DHT22;1537;52.018;8.542;2024-02-28T05:36:31;1.10;99.90
3055;DHT22;1537;52.018;8.542;2024-02-28T05:39:56;1.20;99.90
3055;DHT22;1537;52.018;8.542;2024-02-28T05:43:21;1.20;99.90
3055;DHT22;1537;52.018;8.542;2024-02-28T05:46:45;1.30;99.90
3055;DHT22;1537;52.018;8.542;2024-02-28T05:50:12;1.30;99.90
3055;DHT22;1537;52.018;8.542;2024-02-28T05:53:37;1.30;99.90
3055;DHT22;1537;52.018;8.542;2024-02-28T05:57:02;1.30;99.90
3055;DHT22;1537;52.018;8.542;2024-02-28T06:00:29;1.20;99.90
3055;DHT22;1537;52.018;8.542;2024-02-28T06:03:53;1.20;99.90
3055;DHT22;1537;52.018;8.542;2024-02-28T06:07:19;1.10;99.90
3055;DHT22;1537;52.018;8.542;2024-02-28T06:10:44;1.10;99.90
3055;DHT22;1537;52.018;8.542;2024-02-28T06:14:11;1.20;99.90
3055;DHT22;1537;52.018;8.542;2024-02-28T06:17:35;1.30;99.90
3055;DHT22;1537;52.018;8.542;2024-02-28T06:20:59;1.20;99.90
3055;DHT22;1537;52.018;8.542;2024-02-28T06:24:25;1.20;99.90
3055;DHT22;1537;52.018;8.542;2024-02-28T06:27:49;1.20;99.90
3055;DHT22;1537;52.018;8.542;2024-02-28T06:31:15;1.20;99.90
3055;DHT22;1537;52.018;8.542;2024-02-28T06:34:39;1.20;99.90
3055;DHT22;1537;52.018;8.542;2024-02-28T06:38:03;1.10;99.90
3055;DHT22;1537;52.018;8.542;2024-02-28T06:41:28;1.10;99.90
3055;DHT22;1537;52.018;8.542;2024-02-28T06:44:52;1.00;99.90
3055;DHT22;1537;52.018;8.542;2024-02-28T06:48:15;1.10;99.90
3055;DHT22;1537;52.018;8.542;2024-02-28T06:51:39;1.10;99.90
3055;DHT22;1537;52.018;8.542;2024-02-28T06:55:03;1.20;99.90
3055;DHT22;1537;52.018;8.542;2024-02-28T06:58:36;1.20;99.90
3055;DHT22;1537;52.018;8.542;2024-02-28T07:02:00;1.20;99.90
3055;DHT22;1537;52.018;8.542;2024-02-28T07:05:24;1.20;99.90
3055;DHT22;1537;52.018;8.542;2024-02-28T07:08:48;1.20;99.90
3055;DHT22;1537;52.018;8.542;2024-02-28T07:12:12;1.30;99.90
3055;DHT22;1537;52.018;8.542;2024-02-28T07:15:42;1.40;99.90
3055;DHT22;1537;52.018;8.542;2024-02-28T07:19:15;1.40;99.90
3055;DHT22;1537;52.018;8.542;2024-02-28T07:23:03;1.50;99.90
3055;DHT22;1537;52.018;8.542;2024-02-28T07:26:48;1.60;99.90
3055;DHT22;1537;52.018;8.542;2024-02-28T07:30:16;1.60;99.90
3055;DHT22;1537;52.018;8.542;2024-02-28T07:45:43;1.80;99.90
3055;DHT22;1537;52.018;8.542;2024-02-28T07:49:09;1.90;99.90
3055;DHT22;1537;52.018;8.542;2024-02-28T07:52:40;1.80;99.90
3055;DHT22;1537;52.018;8.542;2024-02-28T07:56:04;1.90;99.90
3055;DHT22;1537;52.018;8.542;2024-02-28T07:59:29;2.00;99.90
3055;DHT22;1537;52.018;8.542;2024-02-28T08:02:55;2.10;99.90
3055;DHT22;1537;52.018;8.542;2024-02-28T08:06:20;2.20;99.90
3055;DHT22;1537;52.018;8.542;2024-02-28T08:09:56;2.00;99.90
3055;DHT22;1537;52.018;8.542;2024-02-28T08:13:44;2.10;99.90
3055;DHT22;1537;52.018;8.542;2024-02-28T08:17:13;2.20;99.90
3055;DHT22;1537;52.018;8.542;2024-02-28T08:20:39;2.40;99.90
3055;DHT22;1537;52.018;8.542;2024-02-28T08:24:05;2.50;99.90
3055;DHT22;1537;52.018;8.542;2024-02-28T08:27:29;2.60;99.90
3055;DHT22;1537;52.018;8.542;2024-02-28T08:30:54;2.60;99.90
3055;DHT22;1537;52.018;8.542;2024-02-28T08:34:23;2.70;99.90
3055;DHT22;1537;52.018;8.542;2024-02-28T08:37:53;2.80;99.90
3055;DHT22;1537;52.018;8.542;2024-02-28T08:41:25;3.00;99.90
3055;DHT22;1537;52.018;8.542;2024-02-28T08:44:50;3.00;99.90
3055;DHT22;1537;52.018;8.542;2024-02-28T08:48:24;2.90;99.90
3055;DHT22;1537;52.018;8.542;2024-02-28T08:51:58;2.80;99.90
3055;DHT22;1537;52.018;8.542;2024-02-28T08:55:34;2.80;99.90
3055;DHT22;1537;52.018;8.542;2024-02-28T08:59:09;2.80;99.90
3055;DHT22;1537;52.018;8.542;2024-02-28T09:02:49;3.00;99.90
3055;DHT22;1537;52.018;8.542;2024-02-28T09:06:22;3.10;99.90
3055;DHT22;1537;52.018;8.542;2024-02-28T09:10:03;3.20;99.90
3055;DHT22;1537;52.018;8.542;2024-02-28T09:13:52;3.20;99.90
3055;DHT22;1537;52.018;8.542;2024-02-28T09:17:25;3.20;99.90
3055;DHT22;1537;52.018;8.542;2024-02-28T09:20:54;3.10;99.90
3055;DHT22;1537;52.018;8.542;2024-02-28T09:24:28;3.10;99.90
3055;DHT22;1537;52.018;8.542;2024-02-28T09:27:58;3.20;99.90
3055;DHT22;1537;52.018;8.542;2024-02-28T09:31:30;3.20;99.90
3055;DHT22;1537;52.018;8.542;2024-02-28T09:34:55;3.20;99.90
3055;DHT22;1537;52.018;8.542;2024-02-28T09:38:28;3.40;99.90
3055;DHT22;1537;52.018;8.542;2024-02-28T09:42:02;3.60;99.90
3055;DHT22;1537;52.018;8.542;2024-02-28T09:45:31;3.70;99.90
3055;DHT22;1537;52.018;8.542;2024-02-28T09:49:14;3.80;99.90
3055;DHT22;1537;52.018;8.542;2024-02-28T09:52:48;3.90;99.90
3055;DHT22;1537;52.018;8.542;2024-02-28T09:56:30;3.80;99.90
3055;DHT22;1537;52.018;8.542;2024-02-28T09:59:56;3.50;99.90
3055;DHT22;1537;52.018;8.542;2024-02-28T10:03:21;3.40;99.90
3055;DHT22;1537;52.018;8.542;2024-02-28T10:06:49;3.30;99.90
3055;DHT22;1537;52.018;8.542;2024-02-28T10:10:14;3.40;99.90
3055;DHT22;1537;52.018;8.542;2024-02-28T10:13:39;3.40;99.90
3055;DHT22;1537;52.018;8.542;2024-02-28T10:17:03;3.40;99.90
3055;DHT22;1537;52.018;8.542;2024-02-28T10:25:09;3.40;99.90
3055;DHT22;1537;52.018;8.542;2024-02-28T10:28:36;3.40;99.90
3055;DHT22;1537;52.018;8.542;2024-02-28T10:32:01;3.20;99.90
3055;DHT22;1537;52.018;8.542;2024-02-28T10:35:26;3.20;99.90
3055;DHT22;1537;52.018;8.542;2024-02-28T10:38:52;3.40;99.90
3055;DHT22;1537;52.018;8.542;2024-02-28T10:42:19;3.50;99.90
3055;DHT22;1537;52.018;8.542;2024-02-28T10:45:46;3.70;99.90
3055;DHT22;1537;52.018;8.542;2024-02-28T10:49:30;3.80;99.90
3055;DHT22;1537;52.018;8.542;2024-02-28T10:52:55;3.90;99.90
3055;DHT22;1537;52.018;8.542;2024-02-28T10:56:26;3.80;99.90
3055;DHT22;1537;52.018;8.542;2024-02-28T10:59:55;3.80;99.90
3055;DHT22;1537;52.018;8.542;2024-02-28T11:03:19;3.90;99.90
3055;DHT22;1537;52.018;8.542;2024-02-28T11:06:50;4.00;99.90
3055;DHT22;1537;52.018;8.542;2024-02-28T11:10:15;4.20;99.90
3055;DHT22;1537;52.018;8.542;2024-02-28T11:13:38;4.40;99.90
3055;DHT22;1537;52.018;8.542;2024-02-28T11:17:05;4.40;99.90
3055;DHT22;1537;52.018;8.542;2024-02-28T11:20:31;4.60;99.90
3055;DHT22;1537;52.018;8.542;2024-02-28T11:23:57;4.50;99.90
3055;DHT22;1537;52.018;8.542;2024-02-28T11:27:22;4.50;99.90
3055;DHT22;1537;52.018;8.542;2024-02-28T11:30:46;4.50;99.90
3055;DHT22;1537;52.018;8.542;2024-02-28T11:34:11;4.60;99.90
3055;DHT22;1537;52.018;8.542;2024-02-28T11:37:37;4.60;99.90
3055;DHT22;1537;52.018;8.542;2024-02-28T11:41:01;4.60;99.90
3055;DHT22;1537;52.018;8.542;2024-02-28T11:44:26;4.60;99.90
3055;DHT22;1537;52.018;8.542;2024-02-28T11:47:49;4.80;99.90
3055;DHT22;1537;52.018;8.542;2024-02-28T11:51:14;4.90;99.90
3055;DHT22;1537;52.018;8.542;2024-02-28T11:54:38;4.90;99.90
3055;DHT22;1537;52.018;8.542;2024-02-28T11:58:02;5.00;99.90
3055;DHT22;1537;52.018;8.542;2024-02-28T12:01:34;5.10;99.90
3055;DHT22;1537;52.018;8.542;2024-02-28T12:05:01;5.20;99.90
3055;DHT22;1537;52.018;8.542;2024-02-28T12:08:27;5.20;99.90
3055;DHT22;1537;52.018;8.542;2024-02-28T12:11:52;5.00;99.90
3055;DHT22;1537;52.018;8.542;2024-02-28T12:15:15;5.10;99.90
3055;DHT22;1537;52.018;8.542;2024-02-28T12:18:40;5.10;99.90
3055;DHT22;1537;52.018;8.542;2024-02-28T12:22:04;5.20;99.90
3055;DHT22;1537;52.018;8.542;2024-02-28T12:25:30;5.00;99.90
3055;DHT22;1537;52.018;8.542;2024-02-28T12:28:54;5.00;99.90
3055;DHT22;1537;52.018;8.542;2024-02-28T12:32:18;5.00;99.90
3055;DHT22;1537;52.018;8.542;2024-02-28T12:35:41;5.10;99.90
3055;DHT22;1537;52.018;8.542;2024-02-28T12:39:05;5.10;99.90
3055;DHT22;1537;52.018;8.542;2024-02-28T12:42:34;5.10;99.90
3055;DHT22;1537;52.018;8.542;2024-02-28T12:46:02;5.30;99.90
3055;DHT22;1537;52.018;8.542;2024-02-28T12:49:26;5.40;99.90
3055;DHT22;1537;52.018;8.542;2024-02-28T12:52:49;5.50;99.90
3055;DHT22;1537;52.018;8.542;2024-02-28T12:56:15;5.50;99.90
3055;DHT22;1537;52.018;8.542;2024-02-28T12:59:40;5.50;99.90
3055;DHT22;1537;52.018;8.542;2024-02-28T13:03:05;5.60;99.90
3055;DHT22;1537;52.018;8.542;2024-02-28T13:06:28;5.70;99.90
3055;DHT22;1537;52.018;8.542;2024-02-28T13:09:52;5.50;99.90
3055;DHT22;1537;52.018;8.542;2024-02-28T13:13:16;5.30;99.90
3055;DHT22;1537;52.018;8.542;2024-02-28T13:16:41;5.20;99.90
3055;DHT22;1537;52.018;8.542;2024-02-28T13:20:06;5.30;99.90
3055;DHT22;1537;52.018;8.542;2024-02-28T13:23:29;5.60;99.90
3055;DHT22;1537;52.018;8.542;2024-02-28T13:26:53;5.90;99.90
3055;DHT22;1537;52.018;8.542;2024-02-28T13:30:17;6.00;99.90
3055;DHT22;1537;52.018;8.542;2024-02-28T13:33:42;6.20;99.90
3055;DHT22;1537;52.018;8.542;2024-02-28T13:37:06;6.30;99.90
3055;DHT22;1537;52.018;8.542;2024-02-28T13:40:30;6.40;99.90
3055;DHT22;1537;52.018;8.542;2024-02-28T13:43:53;6.70;99.90
3055;DHT22;1537;52.018;8.542;2024-02-28T13:47:17;6.90;99.90
3055;DHT22;1537;52.018;8.542;2024-02-28T13:50:42;7.00;99.90
3055;DHT22;1537;52.018;8.542;2024-02-28T13:54:06;7.20;99.90
3055;DHT22;1537;52.018;8.542;2024-02-28T13:57:29;7.30;99.90
3055;DHT22;1537;52.018;8.542;2024-02-28T14:00:53;7.20;99.90
3055;DHT22;1537;52.018;8.542;2024-02-28T14:04:18;7.20;99.90
3055;DHT22;1537;52.018;8.542;2024-02-28T14:07:44;7.00;99.90
3055;DHT22;1537;52.018;8.542;2024-02-28T14:11:08;7.00;99.90
3055;DHT22;1537;52.018;8.542;2024-02-28T14:14:32;7.00;99.90
3055;DHT22;1537;52.018;8.542;2024-02-28T14:17:56;6.90;99.90
3055;DHT22;1537;52.018;8.542;2024-02-28T14:21:20;6.80;99.90
3055;DHT22;1537;52.018;8.542;2024-02-28T14:24:46;6.80;99.90
3055;DHT22;1537;52.018;8.542;2024-02-28T14:28:10;6.90;99.90
3055;DHT22;1537;52.018;8.542;2024-02-28T14:31:35;6.90;99.90
3055;DHT22;1537;52.018;8.542;2024-02-28T14:34:58;7.00;99.90
3055;DHT22;1537;52.018;8.542;2024-02-28T14:38:22;7.10;99.90
3055;DHT22;1537;52.018;8.542;2024-02-28T14:41:47;7.00;99.90
3055;DHT22;1537;52.018;8.542;2024-02-28T14:45:12;6.90;99.90
3055;DHT22;1537;52.018;8.542;2024-02-28T14:48:36;7.00;99.90
3055;DHT22;1537;52.018;8.542;2024-02-28T14:52:00;6.90;99.90
3055;DHT22;1537;52.018;8.542;2024-02-28T14:55:25;7.00;99.90
3055;DHT22;1537;52.018;8.542;2024-02-28T14:58:50;7.10;99.90
3055;DHT22;1537;52.018;8.542;2024-02-28T15:02:14;7.00;99.90
3055;DHT22;1537;52.018;8.542;2024-02-28T15:05:37;6.70;99.90
3055;DHT22;1537;52.018;8.542;2024-02-28T15:09:02;6.50;99.90
3055;DHT22;1537;52.018;8.542;2024-02-28T15:12:28;6.50;99.90
3055;DHT22;1537;52.018;8.542;2024-02-28T15:15:53;6.40;99.90
3055;DHT22;1537;52.018;8.542;2024-02-28T15:19:18;6.60;99.90
3055;DHT22;1537;52.018;8.542;2024-02-28T15:22:42;6.70;99.90
3055;DHT22;1537;52.018;8.542;2024-02-28T15:26:08;6.70;99.90
3055;DHT22;1537;52.018;8.542;2024-02-28T15:29:32;6.40;99.90
3055;DHT22;1537;52.018;8.542;2024-02-28T15:32:57;6.30;99.90
3055;DHT22;1537;52.018;8.542;2024-02-28T15:36:20;6.30;99.90
3055;DHT22;1537;52.018;8.542;2024-02-28T15:39:44;6.40;99.90
3055;DHT22;1537;52.018;8.542;2024-02-28T15:43:08;6.50;99.90
3055;DHT22;1537;52.018;8.542;2024-02-28T15:46:32;6.50;99.90
3055;DHT22;1537;52.018;8.542;2024-02-28T15:49:57;6.50;99.90
3055;DHT22;1537;52.018;8.542;2024-02-28T15:53:20;6.60;99.90
3055;DHT22;1537;52.018;8.542;2024-02-28T15:56:45;6.60;99.90
3055;DHT22;1537;52.018;8.542;2024-02-28T16:00:09;6.50;99.90
3055;DHT22;1537;52.018;8.542;2024-02-28T16:03:35;6.50;99.90
3055;DHT22;1537;52.018;8.542;2024-02-28T16:07:02;6.50;99.90
3055;DHT22;1537;52.018;8.542;2024-02-28T16:10:26;6.50;99.90
3055;DHT22;1537;52.018;8.542;2024-02-28T16:13:51;6.40;99.90
3055;DHT22;1537;52.018;8.542;2024-02-28T16:17:17;6.40;99.90
3055;DHT22;1537;52.018;8.542;2024-02-28T16:20:41;6.40;99.90
3055;DHT22;1537;52.018;8.542;2024-02-28T16:24:06;6.40;99.90
3055;DHT22;1537;52.018;8.542;2024-02-28T16:27:30;6.40;99.90
3055;DHT22;1537;52.018;8.542;2024-02-28T16:30:54;6.40;99.90
3055;DHT22;1537;52.018;8.542;2024-02-28T16:34:20;6.50;99.90
3055;DHT22;1537;52.018;8.542;2024-02-28T16:37:44;6.40;99.90
3055;DHT22;1537;52.018;8.542;2024-02-28T16:41:10;6.40;99.90
3055;DHT22;1537;52.018;8.542;2024-02-28T16:44:35;6.40;99.90
3055;DHT22;1537;52.018;8.542;2024-02-28T16:47:59;6.40;99.90
3055;DHT22;1537;52.018;8.542;2024-02-28T16:51:24;6.40;99.90
3055;DHT22;1537;52.018;8.542;2024-02-28T16:54:48;6.20;99.90
3055;DHT22;1537;52.018;8.542;2024-02-28T16:58:13;6.00;99.90
3055;DHT22;1537;52.018;8.542;2024-02-28T17:01:37;5.90;99.90
3055;DHT22;1537;52.018;8.542;2024-02-28T17:05:01;5.90;99.90
3055;DHT22;1537;52.018;8.542;2024-02-28T17:08:25;6.00;99.90
3055;DHT22;1537;52.018;8.542;2024-02-28T17:11:48;6.00;99.90
3055;DHT22;1537;52.018;8.542;2024-02-28T17:15:13;6.00;99.90
3055;DHT22;1537;52.018;8.542;2024-02-28T17:18:39;5.90;99.90
3055;DHT22;1537;52.018;8.542;2024-02-28T17:22:03;5.90;99.90
3055;DHT22;1537;52.018;8.542;2024-02-28T17:25:28;5.80;99.90
3055;DHT22;1537;52.018;8.542;2024-02-28T17:28:51;5.80;99.90
3055;DHT22;1537;52.018;8.542;2024-02-28T17:32:18;5.70;99.90
3055;DHT22;1537;52.018;8.542;2024-02-28T17:35:42;5.70;99.90
3055;DHT22;1537;52.018;8.542;2024-02-28T17:39:06;5.70;99.90
3055;DHT22;1537;52.018;8.542;2024-02-28T17:42:30;5.60;99.90
3055;DHT22;1537;52.018;8.542;2024-02-28T17:45:53;5.70;99.90
3055;DHT22;1537;52.018;8.542;2024-02-28T17:49:24;5.70;99.90
3055;DHT22;1537;52.018;8.542;2024-02-28T17:52:48;5.70;99.90
3055;DHT22;1537;52.018;8.542;2024-02-28T17:56:13;5.60;99.90
3055;DHT22;1537;52.018;8.542;2024-02-28T17:59:37;5.60;99.90
3055;DHT22;1537;52.018;8.542;2024-02-28T18:03:01;5.50;99.90
3055;DHT22;1537;52.018;8.542;2024-02-28T18:06:30;5.60;99.90
3055;DHT22;1537;52.018;8.542;2024-02-28T18:09:57;5.60;99.90
3055;DHT22;1537;52.018;8.542;2024-02-28T18:13:21;5.60;99.90
3055;DHT22;1537;52.018;8.542;2024-02-28T18:16:45;5.60;99.90
3055;DHT22;1537;52.018;8.542;2024-02-28T18:20:09;5.60;99.90
3055;DHT22;1537;52.018;8.542;2024-02-28T18:23:35;5.60;99.90
3055;DHT22;1537;52.018;8.542;2024-02-28T18:26:58;5.70;99.90
3055;DHT22;1537;52.018;8.542;2024-02-28T18:30:22;5.70;99.90
3055;DHT22;1537;52.018;8.542;2024-02-28T18:33:46;5.70;99.90
3055;DHT22;1537;52.018;8.542;2024-02-28T18:37:13;5.80;99.90
3055;DHT22;1537;52.018;8.542;2024-02-28T18:40:38;5.70;99.90
3055;DHT22;1537;52.018;8.542;2024-02-28T18:44:01;5.60;99.90
3055;DHT22;1537;52.018;8.542;2024-02-28T18:47:26;5.60;99.90
3055;DHT22;1537;52.018;8.542;2024-02-28T18:50:49;5.60;99.90
3055;DHT22;1537;52.018;8.542;2024-02-28T18:54:18;5.50;99.90
3055;DHT22;1537;52.018;8.542;2024-02-28T18:57:43;5.40;99.90
3055;DHT22;1537;52.018;8.542;2024-02-28T19:01:06;5.50;99.90
3055;DHT22;1537;52.018;8.542;2024-02-28T19:04:32;5.40;99.90
3055;DHT22;1537;52.018;8.542;2024-02-28T19:07:57;5.30;99.90
3055;DHT22;1537;52.018;8.542;2024-02-28T19:11:21;5.20;99.90
3055;DHT22;1537;52.018;8.542;2024-02-28T19:14:46;5.20;99.90
3055;DHT22;1537;52.018;8.542;2024-02-28T19:18:09;5.10;99.90
3055;DHT22;1537;52.018;8.542;2024-02-28T19:21:33;5.10;99.90
3055;DHT22;1537;52.018;8.542;2024-02-28T19:24:57;5.00;99.90
3055;DHT22;1537;52.018;8.542;2024-02-28T19:28:21;5.00;99.90
3055;DHT22;1537;52.018;8.542;2024-02-28T19:31:45;4.90;99.90
3055;DHT22;1537;52.018;8.542;2024-02-28T19:35:10;4.80;99.90
3055;DHT22;1537;52.018;8.542;2024-02-28T19:38:34;4.80;99.90
3055;DHT22;1537;52.018;8.542;2024-02-28T19:41:58;4.80;99.90
3055;DHT22;1537;52.018;8.542;2024-02-28T19:45:21;4.70;99.90
3055;DHT22;1537;52.018;8.542;2024-02-28T19:48:46;4.80;99.90
3055;DHT22;1537;52.018;8.542;2024-02-28T19:52:10;4.80;99.90
3055;DHT22;1537;52.018;8.542;2024-02-28T19:55:34;4.80;99.90
3055;DHT22;1537;52.018;8.542;2024-02-28T19:58:57;4.80;99.90
3055;DHT22;1537;52.018;8.542;2024-02-28T20:02:21;4.80;99.90
3055;DHT22;1537;52.018;8.542;2024-02-28T20:05:46;5.10;99.90
3055;DHT22;1537;52.018;8.542;2024-02-28T20:09:10;5.30;99.90
3055;DHT22;1537;52.018;8.542;2024-02-28T20:12:33;5.50;99.90
3055;DHT22;1537;52.018;8.542;2024-02-28T20:15:58;5.70;99.90
3055;DHT22;1537;52.018;8.542;2024-02-28T20:19:22;5.80;99.90
3055;DHT22;1537;52.018;8.542;2024-02-28T20:22:48;5.90;99.90
3055;DHT22;1537;52.018;8.542;2024-02-28T20:26:12;6.00;99.90
3055;DHT22;1537;52.018;8.542;2024-02-28T20:29:38;6.00;99.90
3055;DHT22;1537;52.018;8.542;2024-02-28T20:33:03;6.10;99.90
3055;DHT22;1537;52.018;8.542;2024-02-28T20:36:27;6.20;99.90
3055;DHT22;1537;52.018;8.542;2024-02-28T20:39:53;6.20;99.90
3055;DHT22;1537;52.018;8.542;2024-02-28T20:43:17;6.20;99.90
3055;DHT22;1537;52.018;8.542;2024-02-28T20:46:41;6.20;99.90
3055;DHT22;1537;52.018;8.542;2024-02-28T20:50:07;6.30;99.90
3055;DHT22;1537;52.018;8.542;2024-02-28T20:53:31;6.30;99.90
3055;DHT22;1537;52.018;8.542;2024-02-28T20:56:58;6.30;99.90
3055;DHT22;1537;52.018;8.542;2024-02-28T21:00:34;6.30;99.90
3055;DHT22;1537;52.018;8.542;2024-02-28T21:04:00;6.30;99.90
3055;DHT22;1537;52.018;8.542;2024-02-28T21:07:25;6.30;99.90
3055;DHT22;1537;52.018;8.542;2024-02-28T21:11:07;6.10;99.90
3055;DHT22;1537;52.018;8.542;2024-02-28T21:14:33;6.10;99.90
3055;DHT22;1537;52.018;8.542;2024-02-28T21:17:57;6.00;99.90
3055;DHT22;1537;52.018;8.542;2024-02-28T21:21:21;6.00;99.90
3055;DHT22;1537;52.018;8.542;2024-02-28T21:24:48;5.90;99.90
3055;DHT22;1537;52.018;8.542;2024-02-28T21:28:15;5.90;99.90
3055;DHT22;1537;52.018;8.542;2024-02-28T21:31:41;5.90;99.90
3055;DHT22;1537;52.018;8.542;2024-02-28T21:35:06;5.90;99.90
3055;DHT22;1537;52.018;8.542;2024-02-28T21:38:31;5.90;99.90
3055;DHT22;1537;52.018;8.542;2024-02-28T21:41:55;5.90;99.90
3055;DHT22;1537;52.018;8.542;2024-02-28T21:45:18;5.80;99.90
3055;DHT22;1537;52.018;8.542;2024-02-28T21:48:44;5.80;99.90
3055;DHT22;1537;52.018;8.542;2024-02-28T21:52:12;5.90;99.90
3055;DHT22;1537;52.018;8.542;2024-02-28T21:55:36;5.90;99.90
3055;DHT22;1537;52.018;8.542;2024-02-28T21:58:59;5.90;99.90
3055;DHT22;1537;52.018;8.542;2024-02-28T22:02:23;5.90;99.90
3055;DHT22;1537;52.018;8.542;2024-02-28T22:05:48;5.90;99.90
3055;DHT22;1537;52.018;8.542;2024-02-28T22:09:12;5.80;99.90
3055;DHT22;1537;52.018;8.542;2024-02-28T22:12:36;5.90;99.90
3055;DHT22;1537;52.018;8.542;2024-02-28T22:16:03;6.00;99.90
3055;DHT22;1537;52.018;8.542;2024-02-28T22:19:27;6.00;99.90
3055;DHT22;1537;52.018;8.542;2024-02-28T22:23:01;6.00;99.90
3055;DHT22;1537;52.018;8.542;2024-02-28T22:26:27;6.00;99.90
3055;DHT22;1537;52.018;8.542;2024-02-28T22:29:51;6.00;99.90
3055;DHT22;1537;52.018;8.542;2024-02-28T22:33:22;6.00;99.90
3055;DHT22;1537;52.018;8.542;2024-02-28T22:36:52;6.10;99.90
3055;DHT22;1537;52.018;8.542;2024-02-28T22:40:21;6.20;99.90
3055;DHT22;1537;52.018;8.542;2024-02-28T22:43:44;6.20;99.90
3055;DHT22;1537;52.018;8.542;2024-02-28T22:47:08;6.30;99.90
3055;DHT22;1537;52.018;8.542;2024-02-28T22:50:32;6.30;99.90
3055;DHT22;1537;52.018;8.542;2024-02-28T22:53:56;6.40;99.90
3055;DHT22;1537;52.018;8.542;2024-02-28T22:57:22;6.40;99.90
3055;DHT22;1537;52.018;8.542;2024-02-28T23:00:46;6.40;99.90